sensor_id;sensor_type;location;lat;lon;timestamp;temperature;humidity
17415;DHT22;8825;48.086;16.426;2023-12-20T00:02:24;1.10;73.40
17415;DHT22;8825;48.086;16.426;2023-12-20T00:04:52;0.90;73.70
17415;DHT22;8825;48.086;16.426;2023-12-20T00:07:19;0.80;73.90
17415;DHT22;8825;48.086;16.426;2023-12-20T00:09:47;0.70;74.00
17415;DHT22;8825;48.086;16.426;2023-12-20T00:12:14;0.60;74.20
17415;DHT22;8825;48.086;16.426;2023-12-20T00:14:42;0.50;74.60
17415;DHT22;8825;48.086;16.426;2023-12-20T00:17:09;0.40;74.90
17415;DHT22;8825;48.086;16.426;2023-12-20T00:19:36;0.40;75.00
17415;DHT22;8825;48.086;16.426;2023-12-20T00:22:23;0.40;74.90
17415;DHT22;8825;48.086;16.426;2023-12-20T00:24:51;0.40;75.00
17415;DHT22;8825;48.086;16.426;2023-12-20T00:27:19;0.30;75.10
17415;DHT22;8825;48.086;16.426;2023-12-20T00:29:46;0.40;75.30
17415;DHT22;8825;48.086;16.426;2023-12-20T00:32:15;0.40;75.40
17415;DHT22;8825;48.086;16.426;2023-12-20T00:34:43;0.40;75.30
17415;DHT22;8825;48.086;16.426;2023-12-20T00:37:11;0.50;75.30
17415;DHT22;8825;48.086;16.426;2023-12-20T00:39:38;0.50;75.30
17415;DHT22;8825;48.086;16.426;2023-12-20T00:42:06;0.60;75.20
17415;DHT22;8825;48.086;16.426;2023-12-20T00:44:33;0.60;75.10
17415;DHT22;8825;48.086;16.426;2023-12-20T00:47:01;0.70;75.00
17415;DHT22;8825;48.086;16.426;2023-12-20T00:49:28;0.80;75.00
17415;DHT22;8825;48.086;16.426;2023-12-20T00:51:56;0.80;74.90
17415;DHT22;8825;48.086;16.426;2023-12-20T00:54:23;0.80;74.80
17415;DHT22;8825;48.086;16.426;2023-12-20T00:56:52;0.80;74.70
17415;DHT22;8825;48.086;16.426;2023-12-20T00:59:19;0.70;74.60
17415;DHT22;8825;48.086;16.426;2023-12-20T01:01:47;0.70;74.80
17415;DHT22;8825;48.086;16.426;2023-12-20T01:04:14;0.80;74.80
17415;DHT22;8825;48.086;16.426;2023-12-20T01:06:42;0.80;74.80
17415;DHT22;8825;48.086;16.426;2023-12-20T01:09:09;0.80;74.70
17415;DHT22;8825;48.086;16.426;2023-12-20T01:11:37;0.80;74.70
17415;DHT22;8825;48.086;16.426;2023-12-20T01:14:04;0.80;74.70
17415;DHT22;8825;48.086;16.426;2023-12-20T01:16:32;0.70;74.40
17415;DHT22;8825;48.086;16.426;2023-12-20T01:18:59;0.70;74.50
17415;DHT22;8825;48.086;16.426;2023-12-20T01:21:27;0.70;74.70
17415;DHT22;8825;48.086;16.426;2023-12-20T01:23:54;0.70;74.50
17415;DHT22;8825;48.086;16.426;2023-12-20T01:26:22;0.70;74.40
17415;DHT22;8825;48.086;16.426;2023-12-20T01:28:49;0.70;74.50
17415;DHT22;8825;48.086;16.426;2023-12-20T01:31:17;0.70;74.40
17415;DHT22;8825;48.086;16.426;2023-12-20T01:33:44;0.70;74.40
17415;DHT22;8825;48.086;16.426;2023-12-20T01:36:12;0.70;74.40
17415;DHT22;8825;48.086;16.426;2023-12-20T01:38:39;0.80;74.50
17415;DHT22;8825;48.086;16.426;2023-12-20T01:41:07;0.70;74.50
17415;DHT22;8825;48.086;16.426;2023-12-20T01:43:35;0.80;74.70
17415;DHT22;8825;48.086;16.426;2023-12-20T01:46:03;0.70;74.80
17415;DHT22;8825;48.086;16.426;2023-12-20T01:48:31;0.70;74.70
17415;DHT22;8825;48.086;16.426;2023-12-20T01:51:02;0.70;74.80
17415;DHT22;8825;48.086;16.426;2023-12-20T01:53:30;0.80;75.00
17415;DHT22;8825;48.086;16.426;2023-12-20T01:55:59;0.80;75.10
17415;DHT22;8825;48.086;16.426;2023-12-20T01:58:26;0.80;75.30
17415;DHT22;8825;48.086;16.426;2023-12-20T02:00:56;0.80;75.50
17415;DHT22;8825;48.086;16.426;2023-12-20T02:03:25;0.80;75.40
17415;DHT22;8825;48.086;16.426;2023-12-20T02:05:53;0.90;75.50
17415;DHT22;8825;48.086;16.426;2023-12-20T02:08:21;0.80;75.50
17415;DHT22;8825;48.086;16.426;2023-12-20T02:10:48;0.90;76.40
17415;DHT22;8825;48.086;16.426;2023-12-20T02:13:16;0.90;75.70
17415;DHT22;8825;48.086;16.426;2023-12-20T02:15:43;0.90;75.80
17415;DHT22;8825;48.086;16.426;2023-12-20T02:18:11;1.00;75.80
17415;DHT22;8825;48.086;16.426;2023-12-20T02:20:40;1.00;75.90
17415;DHT22;8825;48.086;16.426;2023-12-20T02:23:08;1.00;75.90
17415;DHT22;8825;48.086;16.426;2023-12-20T02:25:35;1.00;76.10
17415;DHT22;8825;48.086;16.426;2023-12-20T02:28:04;1.10;76.20
17415;DHT22;8825;48.086;16.426;2023-12-20T02:30:33;1.10;76.30
17415;DHT22;8825;48.086;16.426;2023-12-20T02:33:01;1.10;76.20
17415;DHT22;8825;48.086;16.426;2023-12-20T02:35:30;1.10;76.20
17415;DHT22;8825;48.086;16.426;2023-12-20T02:37:58;1.00;76.20
17415;DHT22;8825;48.086;16.426;2023-12-20T02:40:25;0.90;76.40
17415;DHT22;8825;48.086;16.426;2023-12-20T02:42:53;0.80;76.70
17415;DHT22;8825;48.086;16.426;2023-12-20T02:45:20;0.70;77.20
17415;DHT22;8825;48.086;16.426;2023-12-20T02:47:48;0.60;77.50
17415;DHT22;8825;48.086;16.426;2023-12-20T02:50:15;0.50;77.70
17415;DHT22;8825;48.086;16.426;2023-12-20T02:52:45;0.50;78.10
17415;DHT22;8825;48.086;16.426;2023-12-20T02:55:12;0.40;78.60
17415;DHT22;8825;48.086;16.426;2023-12-20T02:57:40;0.30;79.00
17415;DHT22;8825;48.086;16.426;2023-12-20T03:00:09;0.20;79.60
17415;DHT22;8825;48.086;16.426;2023-12-20T03:02:40;0.20;79.90
17415;DHT22;8825;48.086;16.426;2023-12-20T03:05:08;0.10;80.20
17415;DHT22;8825;48.086;16.426;2023-12-20T03:07:37;0.10;80.60
17415;DHT22;8825;48.086;16.426;2023-12-20T03:10:05;0.10;80.60
17415;DHT22;8825;48.086;16.426;2023-12-20T03:12:34;0.20;80.70
17415;DHT22;8825;48.086;16.426;2023-12-20T03:15:02;0.20;81.50
17415;DHT22;8825;48.086;16.426;2023-12-20T03:17:29;0.20;80.90
17415;DHT22;8825;48.086;16.426;2023-12-20T03:19:57;0.10;81.90
17415;DHT22;8825;48.086;16.426;2023-12-20T03:22:25;0.10;81.10
17415;DHT22;8825;48.086;16.426;2023-12-20T03:24:52;0.20;81.10
17415;DHT22;8825;48.086;16.426;2023-12-20T03:27:20;0.20;81.10
17415;DHT22;8825;48.086;16.426;2023-12-20T03:29:47;0.30;80.90
17415;DHT22;8825;48.086;16.426;2023-12-20T03:32:15;0.30;80.90
17415;DHT22;8825;48.086;16.426;2023-12-20T03:34:43;0.30;80.70
17415;DHT22;8825;48.086;16.426;2023-12-20T03:37:10;0.30;80.40
17415;DHT22;8825;48.086;16.426;2023-12-20T03:39:38;0.20;80.10
17415;DHT22;8825;48.086;16.426;2023-12-20T03:42:05;0.20;80.30
17415;DHT22;8825;48.086;16.426;2023-12-20T03:44:33;0.10;81.00
17415;DHT22;8825;48.086;16.426;2023-12-20T03:47:00;-0.10;80.30
17415;DHT22;8825;48.086;16.426;2023-12-20T03:49:28;-0.20;80.60
17415;DHT22;8825;48.086;16.426;2023-12-20T03:51:55;-0.30;80.80
17415;DHT22;8825;48.086;16.426;2023-12-20T03:54:23;-0.30;81.10
17415;DHT22;8825;48.086;16.426;2023-12-20T03:56:51;-0.30;81.40
17415;DHT22;8825;48.086;16.426;2023-12-20T03:59:18;-0.20;81.50
17415;DHT22;8825;48.086;16.426;2023-12-20T04:01:46;-0.20;81.30
17415;DHT22;8825;48.086;16.426;2023-12-20T04:04:14;-0.20;81.20
17415;DHT22;8825;48.086;16.426;2023-12-20T04:06:41;-0.10;81.30
17415;DHT22;8825;48.086;16.426;2023-12-20T04:09:09;0.00;81.20
17415;DHT22;8825;48.086;16.426;2023-12-20T04:11:37;-0.10;80.00
17415;DHT22;8825;48.086;16.426;2023-12-20T04:14:05;-0.30;80.70
17415;DHT22;8825;48.086;16.426;2023-12-20T04:16:34;-0.30;80.90
17415;DHT22;8825;48.086;16.426;2023-12-20T04:19:01;-0.40;80.70
17415;DHT22;8825;48.086;16.426;2023-12-20T04:21:29;-0.40;81.00
17415;DHT22;8825;48.086;16.426;2023-12-20T04:23:57;-0.50;81.10
17415;DHT22;8825;48.086;16.426;2023-12-20T04:26:24;-0.50;81.20
17415;DHT22;8825;48.086;16.426;2023-12-20T04:28:52;-0.50;81.30
17415;DHT22;8825;48.086;16.426;2023-12-20T04:31:19;-0.50;81.30
17415;DHT22;8825;48.086;16.426;2023-12-20T04:33:47;-0.50;81.40
17415;DHT22;8825;48.086;16.426;2023-12-20T04:36:14;-0.40;81.50
17415;DHT22;8825;48.086;16.426;2023-12-20T04:38:42;-0.30;81.30
17415;DHT22;8825;48.086;16.426;2023-12-20T04:41:09;-0.30;80.90
17415;DHT22;8825;48.086;16.426;2023-12-20T04:43:37;-0.40;80.90
17415;DHT22;8825;48.086;16.426;2023-12-20T04:46:04;-0.50;81.60
17415;DHT22;8825;48.086;16.426;2023-12-20T04:48:32;-0.60;80.90
17415;DHT22;8825;48.086;16.426;2023-12-20T04:50:59;-0.60;81.10
17415;DHT22;8825;48.086;16.426;2023-12-20T04:53:28;-0.60;81.30
17415;DHT22;8825;48.086;16.426;2023-12-20T04:55:56;-0.50;82.40
17415;DHT22;8825;48.086;16.426;2023-12-20T04:58:23;-0.40;81.40
17415;DHT22;8825;48.086;16.426;2023-12-20T05:00:51;-0.30;81.20
17415;DHT22;8825;48.086;16.426;2023-12-20T05:03:19;-0.30;81.10
17415;DHT22;8825;48.086;16.426;2023-12-20T05:05:47;-0.20;81.40
17415;DHT22;8825;48.086;16.426;2023-12-20T05:08:14;-0.10;81.10
17415;DHT22;8825;48.086;16.426;2023-12-20T05:10:42;-0.10;80.80
17415;DHT22;8825;48.086;16.426;2023-12-20T05:13:09;0.00;80.70
17415;DHT22;8825;48.086;16.426;2023-12-20T05:15:37;0.00;80.50
17415;DHT22;8825;48.086;16.426;2023-12-20T05:18:04;0.10;80.30
17415;DHT22;8825;48.086;16.426;2023-12-20T05:20:32;0.00;80.10
17415;DHT22;8825;48.086;16.426;2023-12-20T05:22:59;0.00;80.10
17415;DHT22;8825;48.086;16.426;2023-12-20T05:25:27;0.00;80.00
17415;DHT22;8825;48.086;16.426;2023-12-20T05:27:54;0.10;80.00
17415;DHT22;8825;48.086;16.426;2023-12-20T05:30:22;0.00;79.80
17415;DHT22;8825;48.086;16.426;2023-12-20T05:32:50;0.00;79.90
17415;DHT22;8825;48.086;16.426;2023-12-20T05:35:17;-0.20;80.00
17415;DHT22;8825;48.086;16.426;2023-12-20T05:37:45;-0.30;80.50
17415;DHT22;8825;48.086;16.426;2023-12-20T05:40:13;-0.40;81.00
17415;DHT22;8825;48.086;16.426;2023-12-20T05:42:40;-0.40;81.40
17415;DHT22;8825;48.086;16.426;2023-12-20T05:45:09;-0.30;81.50
17415;DHT22;8825;48.086;16.426;2023-12-20T05:47:37;-0.20;81.40
17415;DHT22;8825;48.086;16.426;2023-12-20T05:50:05;-0.20;81.30
17415;DHT22;8825;48.086;16.426;2023-12-20T05:52:33;-0.20;81.40
17415;DHT22;8825;48.086;16.426;2023-12-20T05:55:00;-0.10;81.40
17415;DHT22;8825;48.086;16.426;2023-12-20T05:57:28;0.00;81.30
17415;DHT22;8825;48.086;16.426;2023-12-20T05:59:55;0.10;81.40
17415;DHT22;8825;48.086;16.426;2023-12-20T06:02:23;0.20;81.20
17415;DHT22;8825;48.086;16.426;2023-12-20T06:04:51;0.30;81.00
17415;DHT22;8825;48.086;16.426;2023-12-20T06:07:18;0.40;80.70
17415;DHT22;8825;48.086;16.426;2023-12-20T06:09:45;0.40;80.50
17415;DHT22;8825;48.086;16.426;2023-12-20T06:12:13;0.50;80.40
17415;DHT22;8825;48.086;16.426;2023-12-20T06:14:41;0.50;80.20
17415;DHT22;8825;48.086;16.426;2023-12-20T06:17:08;0.50;79.90
17415;DHT22;8825;48.086;16.426;2023-12-20T06:19:36;0.60;79.90
17415;DHT22;8825;48.086;16.426;2023-12-20T06:22:03;0.60;79.70
17415;DHT22;8825;48.086;16.426;2023-12-20T06:24:31;0.70;79.60
17415;DHT22;8825;48.086;16.426;2023-12-20T06:27:00;0.70;79.50
17415;DHT22;8825;48.086;16.426;2023-12-20T06:29:28;0.80;79.60
17415;DHT22;8825;48.086;16.426;2023-12-20T06:31:57;0.80;79.50
17415;DHT22;8825;48.086;16.426;2023-12-20T06:34:25;0.90;79.50
17415;DHT22;8825;48.086;16.426;2023-12-20T06:36:52;1.00;79.50
17415;DHT22;8825;48.086;16.426;2023-12-20T06:39:20;1.10;79.50
17415;DHT22;8825;48.086;16.426;2023-12-20T06:41:47;1.20;79.60
17415;DHT22;8825;48.086;16.426;2023-12-20T06:44:15;1.30;79.60
17415;DHT22;8825;48.086;16.426;2023-12-20T06:46:44;1.30;79.30
17415;DHT22;8825;48.086;16.426;2023-12-20T06:49:12;1.40;80.00
17415;DHT22;8825;48.086;16.426;2023-12-20T06:51:40;1.50;79.00
17415;DHT22;8825;48.086;16.426;2023-12-20T06:54:07;1.50;78.90
17415;DHT22;8825;48.086;16.426;2023-12-20T06:56:35;1.50;78.90
17415;DHT22;8825;48.086;16.426;2023-12-20T06:59:02;1.60;79.10
17415;DHT22;8825;48.086;16.426;2023-12-20T07:04:09;1.90;79.20
17415;DHT22;8825;48.086;16.426;2023-12-20T07:06:37;2.20;80.80
17415;DHT22;8825;48.086;16.426;2023-12-20T07:09:04;2.50;80.50
17415;DHT22;8825;48.086;16.426;2023-12-20T07:11:32;2.70;80.40
17415;DHT22;8825;48.086;16.426;2023-12-20T07:14:00;3.00;80.60
17415;DHT22;8825;48.086;16.426;2023-12-20T07:16:27;3.20;80.70
17415;DHT22;8825;48.086;16.426;2023-12-20T07:18:55;3.40;80.70
17415;DHT22;8825;48.086;16.426;2023-12-20T07:21:23;3.60;80.90
17415;DHT22;8825;48.086;16.426;2023-12-20T07:23:51;3.80;80.90
17415;DHT22;8825;48.086;16.426;2023-12-20T07:26:19;4.10;81.10
17415;DHT22;8825;48.086;16.426;2023-12-20T07:28:47;4.40;81.20
17415;DHT22;8825;48.086;16.426;2023-12-20T07:31:16;4.70;81.00
17415;DHT22;8825;48.086;16.426;2023-12-20T07:33:43;5.00;80.70
17415;DHT22;8825;48.086;16.426;2023-12-20T07:36:11;5.30;80.40
17415;DHT22;8825;48.086;16.426;2023-12-20T07:38:38;5.80;81.50
17415;DHT22;8825;48.086;16.426;2023-12-20T07:41:10;6.50;81.30
17415;DHT22;8825;48.086;16.426;2023-12-20T07:43:37;7.00;79.10
17415;DHT22;8825;48.086;16.426;2023-12-20T07:46:06;7.10;77.80
17415;DHT22;8825;48.086;16.426;2023-12-20T07:48:35;7.20;77.00
17415;DHT22;8825;48.086;16.426;2023-12-20T07:51:03;7.30;76.40
17415;DHT22;8825;48.086;16.426;2023-12-20T07:53:33;7.40;75.60
17415;DHT22;8825;48.086;16.426;2023-12-20T07:56:02;7.50;75.10
17415;DHT22;8825;48.086;16.426;2023-12-20T07:58:29;7.60;74.70
17415;DHT22;8825;48.086;16.426;2023-12-20T08:00:57;7.60;74.20
17415;DHT22;8825;48.086;16.426;2023-12-20T08:03:25;7.70;74.10
17415;DHT22;8825;48.086;16.426;2023-12-20T08:05:52;7.80;73.80
17415;DHT22;8825;48.086;16.426;2023-12-20T08:08:20;7.80;73.20
17415;DHT22;8825;48.086;16.426;2023-12-20T08:10:47;7.90;72.80
17415;DHT22;8825;48.086;16.426;2023-12-20T08:13:15;8.00;72.30
17415;DHT22;8825;48.086;16.426;2023-12-20T08:15:42;8.00;71.90
17415;DHT22;8825;48.086;16.426;2023-12-20T08:18:10;8.10;71.50
17415;DHT22;8825;48.086;16.426;2023-12-20T08:20:37;8.10;70.90
17415;DHT22;8825;48.086;16.426;2023-12-20T08:23:05;8.20;70.70
17415;DHT22;8825;48.086;16.426;2023-12-20T08:25:32;8.30;71.00
17415;DHT22;8825;48.086;16.426;2023-12-20T08:28:01;8.30;69.90
17415;DHT22;8825;48.086;16.426;2023-12-20T08:30:28;8.40;69.70
17415;DHT22;8825;48.086;16.426;2023-12-20T08:33:01;8.40;69.60
17415;DHT22;8825;48.086;16.426;2023-12-20T08:35:29;8.40;69.40
17415;DHT22;8825;48.086;16.426;2023-12-20T08:37:56;8.40;69.30
17415;DHT22;8825;48.086;16.426;2023-12-20T08:40:24;8.40;69.00
17415;DHT22;8825;48.086;16.426;2023-12-20T08:42:51;8.40;68.90
17415;DHT22;8825;48.086;16.426;2023-12-20T08:45:19;8.50;68.70
17415;DHT22;8825;48.086;16.426;2023-12-20T08:47:46;8.50;68.30
17415;DHT22;8825;48.086;16.426;2023-12-20T08:50:14;8.50;68.10
17415;DHT22;8825;48.086;16.426;2023-12-20T08:52:42;8.60;67.90
17415;DHT22;8825;48.086;16.426;2023-12-20T08:55:09;8.60;67.50
17415;DHT22;8825;48.086;16.426;2023-12-20T08:57:37;8.60;67.30
17415;DHT22;8825;48.086;16.426;2023-12-20T09:00:05;8.60;67.20
17415;DHT22;8825;48.086;16.426;2023-12-20T09:02:34;9.20;72.40
17415;DHT22;8825;48.086;16.426;2023-12-20T09:05:02;10.00;71.90
17415;DHT22;8825;48.086;16.426;2023-12-20T09:07:30;10.30;67.00
17415;DHT22;8825;48.086;16.426;2023-12-20T09:09:58;10.10;66.10
17415;DHT22;8825;48.086;16.426;2023-12-20T09:12:26;9.90;65.30
17415;DHT22;8825;48.086;16.426;2023-12-20T09:14:54;9.70;64.90
17415;DHT22;8825;48.086;16.426;2023-12-20T09:17:21;9.60;64.70
17415;DHT22;8825;48.086;16.426;2023-12-20T09:19:50;9.60;64.90
17415;DHT22;8825;48.086;16.426;2023-12-20T09:22:20;9.60;64.50
17415;DHT22;8825;48.086;16.426;2023-12-20T09:24:47;9.50;64.40
17415;DHT22;8825;48.086;16.426;2023-12-20T09:27:14;9.60;67.00
17415;DHT22;8825;48.086;16.426;2023-12-20T09:29:42;10.10;66.50
17415;DHT22;8825;48.086;16.426;2023-12-20T09:32:10;10.10;65.10
17415;DHT22;8825;48.086;16.426;2023-12-20T09:34:37;10.00;64.10
17415;DHT22;8825;48.086;16.426;2023-12-20T09:37:05;9.90;64.00
17415;DHT22;8825;48.086;16.426;2023-12-20T09:39:34;9.80;64.20
17415;DHT22;8825;48.086;16.426;2023-12-20T09:42:03;9.70;64.30
17415;DHT22;8825;48.086;16.426;2023-12-20T09:44:32;9.60;64.40
17415;DHT22;8825;48.086;16.426;2023-12-20T09:47:04;9.60;64.40
17415;DHT22;8825;48.086;16.426;2023-12-20T09:49:33;9.50;64.60
17415;DHT22;8825;48.086;16.426;2023-12-20T09:52:01;9.50;65.50
17415;DHT22;8825;48.086;16.426;2023-12-20T09:54:30;9.40;64.80
17415;DHT22;8825;48.086;16.426;2023-12-20T09:56:58;9.40;65.00
17415;DHT22;8825;48.086;16.426;2023-12-20T09:59:25;9.30;65.20
17415;DHT22;8825;48.086;16.426;2023-12-20T10:01:55;9.30;65.60
17415;DHT22;8825;48.086;16.426;2023-12-20T10:04:23;9.20;65.60
17415;DHT22;8825;48.086;16.426;2023-12-20T10:06:52;9.20;65.80
17415;DHT22;8825;48.086;16.426;2023-12-20T10:09:19;9.20;66.00
17415;DHT22;8825;48.086;16.426;2023-12-20T10:11:47;9.10;66.20
17415;DHT22;8825;48.086;16.426;2023-12-20T10:14:16;9.10;66.40
17415;DHT22;8825;48.086;16.426;2023-12-20T10:16:45;9.00;66.60
17415;DHT22;8825;48.086;16.426;2023-12-20T10:19:12;8.90;66.80
17415;DHT22;8825;48.086;16.426;2023-12-20T10:21:41;8.90;67.20
17415;DHT22;8825;48.086;16.426;2023-12-20T10:24:09;8.80;67.50
17415;DHT22;8825;48.086;16.426;2023-12-20T10:26:38;8.80;67.70
17415;DHT22;8825;48.086;16.426;2023-12-20T10:29:06;8.80;68.00
17415;DHT22;8825;48.086;16.426;2023-12-20T10:31:34;8.70;68.10
17415;DHT22;8825;48.086;16.426;2023-12-20T10:34:03;8.70;68.30
17415;DHT22;8825;48.086;16.426;2023-12-20T10:36:32;8.70;68.50
17415;DHT22;8825;48.086;16.426;2023-12-20T10:39:02;8.60;68.50
17415;DHT22;8825;48.086;16.426;2023-12-20T10:41:31;8.70;68.70
17415;DHT22;8825;48.086;16.426;2023-12-20T10:44:01;8.60;68.80
17415;DHT22;8825;48.086;16.426;2023-12-20T10:46:29;8.60;68.90
17415;DHT22;8825;48.086;16.426;2023-12-20T10:49:02;8.60;68.80
17415;DHT22;8825;48.086;16.426;2023-12-20T10:51:28;8.60;68.90
17415;DHT22;8825;48.086;16.426;2023-12-20T10:53:56;8.60;69.00
17415;DHT22;8825;48.086;16.426;2023-12-20T10:56:24;8.60;68.90
17415;DHT22;8825;48.086;16.426;2023-12-20T10:58:52;8.70;68.90
17415;DHT22;8825;48.086;16.426;2023-12-20T11:01:21;8.70;68.80
17415;DHT22;8825;48.086;16.426;2023-12-20T11:03:51;8.70;68.70
17415;DHT22;8825;48.086;16.426;2023-12-20T11:06:46;8.70;68.70
17415;DHT22;8825;48.086;16.426;2023-12-20T11:09:29;8.80;68.60
17415;DHT22;8825;48.086;16.426;2023-12-20T11:12:12;8.80;68.70
17415;DHT22;8825;48.086;16.426;2023-12-20T11:14:50;8.80;68.80
17415;DHT22;8825;48.086;16.426;2023-12-20T11:17:18;8.70;68.70
17415;DHT22;8825;48.086;16.426;2023-12-20T11:22:31;8.80;68.70
17415;DHT22;8825;48.086;16.426;2023-12-20T11:25:10;8.80;68.50
17415;DHT22;8825;48.086;16.426;2023-12-20T11:27:42;8.90;68.50
17415;DHT22;8825;48.086;16.426;2023-12-20T11:30:10;8.90;68.40
17415;DHT22;8825;48.086;16.426;2023-12-20T11:32:39;8.90;68.30
17415;DHT22;8825;48.086;16.426;2023-12-20T11:37:41;9.00;68.50
17415;DHT22;8825;48.086;16.426;2023-12-20T11:40:17;9.00;68.10
17415;DHT22;8825;48.086;16.426;2023-12-20T11:42:48;9.10;68.00
17415;DHT22;8825;48.086;16.426;2023-12-20T11:45:19;9.10;67.80
17415;DHT22;8825;48.086;16.426;2023-12-20T11:47:49;9.10;67.70
17415;DHT22;8825;48.086;16.426;2023-12-20T11:50:20;9.10;67.70
17415;DHT22;8825;48.086;16.426;2023-12-20T11:52:49;9.10;67.60
17415;DHT22;8825;48.086;16.426;2023-12-20T11:55:24;9.20;67.40
17415;DHT22;8825;48.086;16.426;2023-12-20T11:57:51;9.20;67.10
17415;DHT22;8825;48.086;16.426;2023-12-20T12:00:19;9.20;67.10
17415;DHT22;8825;48.086;16.426;2023-12-20T12:03:00;9.30;67.10
17415;DHT22;8825;48.086;16.426;2023-12-20T12:05:31;9.30;66.80
17415;DHT22;8825;48.086;16.426;2023-12-20T12:07:59;9.40;66.80
17415;DHT22;8825;48.086;16.426;2023-12-20T12:10:26;9.40;66.90
17415;DHT22;8825;48.086;16.426;2023-12-20T12:12:54;9.40;66.90
17415;DHT22;8825;48.086;16.426;2023-12-20T12:15:22;9.50;66.90
17415;DHT22;8825;48.086;16.426;2023-12-20T12:17:56;9.60;66.90
17415;DHT22;8825;48.086;16.426;2023-12-20T12:20:24;9.60;66.90
17415;DHT22;8825;48.086;16.426;2023-12-20T12:23:03;9.70;66.60
17415;DHT22;8825;48.086;16.426;2023-12-20T12:25:34;9.80;66.50
17415;DHT22;8825;48.086;16.426;2023-12-20T12:28:01;9.80;66.30
17415;DHT22;8825;48.086;16.426;2023-12-20T12:30:29;9.90;66.30
17415;DHT22;8825;48.086;16.426;2023-12-20T12:32:57;10.00;66.10
17415;DHT22;8825;48.086;16.426;2023-12-20T12:35:27;10.00;65.80
17415;DHT22;8825;48.086;16.426;2023-12-20T12:37:55;10.10;65.30
17415;DHT22;8825;48.086;16.426;2023-12-20T12:40:24;10.10;64.80
17415;DHT22;8825;48.086;16.426;2023-12-20T12:42:52;10.10;64.50
17415;DHT22;8825;48.086;16.426;2023-12-20T12:45:19;10.20;64.60
17415;DHT22;8825;48.086;16.426;2023-12-20T12:47:47;10.20;64.50
17415;DHT22;8825;48.086;16.426;2023-12-20T12:50:14;10.20;64.50
17415;DHT22;8825;48.086;16.426;2023-12-20T12:52:42;10.20;64.60
17415;DHT22;8825;48.086;16.426;2023-12-20T12:55:09;10.30;64.70
17415;DHT22;8825;48.086;16.426;2023-12-20T12:57:37;10.30;64.40
17415;DHT22;8825;48.086;16.426;2023-12-20T13:00:05;10.30;64.30
17415;DHT22;8825;48.086;16.426;2023-12-20T13:02:35;10.20;65.20
17415;DHT22;8825;48.086;16.426;2023-12-20T13:05:05;10.20;64.30
17415;DHT22;8825;48.086;16.426;2023-12-20T13:07:32;10.10;64.30
17415;DHT22;8825;48.086;16.426;2023-12-20T13:10:00;10.00;64.40
17415;DHT22;8825;48.086;16.426;2023-12-20T13:12:27;10.00;64.40
17415;DHT22;8825;48.086;16.426;2023-12-20T13:14:55;9.90;64.20
17415;DHT22;8825;48.086;16.426;2023-12-20T13:17:23;9.90;64.30
17415;DHT22;8825;48.086;16.426;2023-12-20T13:19:51;9.90;64.60
17415;DHT22;8825;48.086;16.426;2023-12-20T13:22:18;9.90;64.60
17415;DHT22;8825;48.086;16.426;2023-12-20T13:24:46;9.80;64.60
17415;DHT22;8825;48.086;16.426;2023-12-20T13:27:13;9.80;64.60
17415;DHT22;8825;48.086;16.426;2023-12-20T13:29:41;9.80;64.60
17415;DHT22;8825;48.086;16.426;2023-12-20T13:32:08;9.80;64.70
17415;DHT22;8825;48.086;16.426;2023-12-20T13:34:36;9.80;64.60
17415;DHT22;8825;48.086;16.426;2023-12-20T13:37:03;9.70;64.70
17415;DHT22;8825;48.086;16.426;2023-12-20T13:39:31;9.70;64.50
17415;DHT22;8825;48.086;16.426;2023-12-20T13:41:59;9.70;64.50
17415;DHT22;8825;48.086;16.426;2023-12-20T13:44:27;9.60;64.40
17415;DHT22;8825;48.086;16.426;2023-12-20T13:46:54;9.60;64.40
17415;DHT22;8825;48.086;16.426;2023-12-20T13:49:22;9.60;64.50
17415;DHT22;8825;48.086;16.426;2023-12-20T13:51:51;9.50;64.60
17415;DHT22;8825;48.086;16.426;2023-12-20T13:54:20;9.50;64.70
17415;DHT22;8825;48.086;16.426;2023-12-20T13:56:48;9.50;64.90
17415;DHT22;8825;48.086;16.426;2023-12-20T13:59:16;9.40;64.90
17415;DHT22;8825;48.086;16.426;2023-12-20T14:01:43;9.40;64.80
17415;DHT22;8825;48.086;16.426;2023-12-20T14:04:11;9.40;64.90
17415;DHT22;8825;48.086;16.426;2023-12-20T14:06:39;9.40;64.80
17415;DHT22;8825;48.086;16.426;2023-12-20T14:09:07;9.40;64.80
17415;DHT22;8825;48.086;16.426;2023-12-20T14:11:35;9.40;64.90
17415;DHT22;8825;48.086;16.426;2023-12-20T14:14:08;9.30;64.80
17415;DHT22;8825;48.086;16.426;2023-12-20T14:16:35;9.30;64.50
17415;DHT22;8825;48.086;16.426;2023-12-20T14:19:04;9.30;64.80
17415;DHT22;8825;48.086;16.426;2023-12-20T14:21:34;9.20;64.90
17415;DHT22;8825;48.086;16.426;2023-12-20T14:24:01;9.20;64.70
17415;DHT22;8825;48.086;16.426;2023-12-20T14:26:30;9.30;64.70
17415;DHT22;8825;48.086;16.426;2023-12-20T14:28:58;9.20;64.80
17415;DHT22;8825;48.086;16.426;2023-12-20T14:31:26;9.20;64.80
17415;DHT22;8825;48.086;16.426;2023-12-20T14:33:53;9.20;65.00
17415;DHT22;8825;48.086;16.426;2023-12-20T14:36:22;9.10;65.00
17415;DHT22;8825;48.086;16.426;2023-12-20T14:38:49;9.00;64.90
17415;DHT22;8825;48.086;16.426;2023-12-20T14:41:17;9.00;65.00
17415;DHT22;8825;48.086;16.426;2023-12-20T14:43:45;9.00;65.20
17415;DHT22;8825;48.086;16.426;2023-12-20T14:46:13;9.10;65.30
17415;DHT22;8825;48.086;16.426;2023-12-20T14:48:41;9.10;65.30
17415;DHT22;8825;48.086;16.426;2023-12-20T14:51:09;9.10;65.40
17415;DHT22;8825;48.086;16.426;2023-12-20T14:53:38;9.10;65.50
17415;DHT22;8825;48.086;16.426;2023-12-20T14:56:06;9.10;65.60
17415;DHT22;8825;48.086;16.426;2023-12-20T14:58:33;9.10;65.70
17415;DHT22;8825;48.086;16.426;2023-12-20T15:01:02;9.10;65.80
17415;DHT22;8825;48.086;16.426;2023-12-20T15:03:29;9.10;65.90
17415;DHT22;8825;48.086;16.426;2023-12-20T15:05:57;9.10;65.70
17415;DHT22;8825;48.086;16.426;2023-12-20T15:08:25;9.10;65.80
17415;DHT22;8825;48.086;16.426;2023-12-20T15:10:53;9.10;65.80
17415;DHT22;8825;48.086;16.426;2023-12-20T15:13:20;9.10;66.50
17415;DHT22;8825;48.086;16.426;2023-12-20T15:15:48;9.10;65.70
17415;DHT22;8825;48.086;16.426;2023-12-20T15:18:15;9.20;65.90
17415;DHT22;8825;48.086;16.426;2023-12-20T15:20:43;9.10;65.80
17415;DHT22;8825;48.086;16.426;2023-12-20T15:23:11;9.10;65.70
17415;DHT22;8825;48.086;16.426;2023-12-20T15:25:39;9.10;65.60
17415;DHT22;8825;48.086;16.426;2023-12-20T15:28:06;9.10;66.10
17415;DHT22;8825;48.086;16.426;2023-12-20T15:30:34;9.10;65.00
17415;DHT22;8825;48.086;16.426;2023-12-20T15:33:02;9.10;65.00
17415;DHT22;8825;48.086;16.426;2023-12-20T15:35:30;9.20;65.00
17415;DHT22;8825;48.086;16.426;2023-12-20T15:37:58;9.10;64.90
17415;DHT22;8825;48.086;16.426;2023-12-20T15:40:25;9.10;64.30
17415;DHT22;8825;48.086;16.426;2023-12-20T15:42:53;9.10;64.70
17415;DHT22;8825;48.086;16.426;2023-12-20T15:45:22;9.10;64.60
17415;DHT22;8825;48.086;16.426;2023-12-20T15:47:49;9.10;64.60
17415;DHT22;8825;48.086;16.426;2023-12-20T15:50:17;9.10;64.60
17415;DHT22;8825;48.086;16.426;2023-12-20T15:52:44;9.00;64.50
17415;DHT22;8825;48.086;16.426;2023-12-20T15:55:12;9.00;64.70
17415;DHT22;8825;48.086;16.426;2023-12-20T15:57:39;9.00;64.80